Main page
METAR-TAF:

METAR-TAF

Airports :

Baghdad, Iraq

Baghdad International Airport

latitude: 33-15-45N, longitude: 44-14-04E, elevation: 35 m

Current weather observation

The report was made 25 minutes ago, at 08:30 UTC
Wind 12 kt from the South/Southeast
Temperature 36°C
Humidity 17%
Pressure 1010 hPa
Visibility 10 km or more
no clouds below 1500 m and no cumulonimbus

METAR: ORBI 300830Z 15012KT CAVOK 36/07 Q1010

Time: 11:55 (08:55 UTC)

Forecast

The report was made 4 hours and 55 minutes ago, at 04:00 UTC
Forecast valid from 30 at 06 UTC to 01 at 06 UTC
Wind 3 kt from variable directions
Visibility: 8000 m

TAF: ORBI 300400Z 3006/0106 VRB03KT 8000 NSC

Weather observations and forecasts of more than 4000 airports (METAR and TAF reports).

The available stations are represented by yellow and red dots on the map.

Hover mouse over dot to see the name of the station.

Then click to see weather observations and forecasts.

To change the map : click on the green buttons with a black cross to zoom in, on the green button with a dash to zoom out, or on the green arrows for adjacent maps.


METAR-TAF: